sensor_id;sensor_type;location;lat;lon;timestamp;temperature;humidity
4374;DHT22;2201;51.100;6.814;2023-02-24T00:02:31;7.30;98.20
4374;DHT22;2201;51.100;6.814;2023-02-24T00:04:59;7.30;98.20
4374;DHT22;2201;51.100;6.814;2023-02-24T00:07:30;7.30;98.20
4374;DHT22;2201;51.100;6.814;2023-02-24T00:10:04;7.20;98.20
4374;DHT22;2201;51.100;6.814;2023-02-24T00:12:36;7.20;98.20
4374;DHT22;2201;51.100;6.814;2023-02-24T00:15:09;7.20;98.20
4374;DHT22;2201;51.100;6.814;2023-02-24T00:17:37;7.20;98.20
4374;DHT22;2201;51.100;6.814;2023-02-24T00:20:05;7.20;98.20
4374;DHT22;2201;51.100;6.814;2023-02-24T00:22:38;7.10;98.20
4374;DHT22;2201;51.100;6.814;2023-02-24T00:25:07;7.10;98.20
4374;DHT22;2201;51.100;6.814;2023-02-24T00:27:37;7.10;98.20
4374;DHT22;2201;51.100;6.814;2023-02-24T00:30:06;7.10;98.20
4374;DHT22;2201;51.100;6.814;2023-02-24T00:32:38;7.10;98.20
4374;DHT22;2201;51.100;6.814;2023-02-24T00:35:09;7.10;98.20
4374;DHT22;2201;51.100;6.814;2023-02-24T00:37:41;7.10;98.20
4374;DHT22;2201;51.100;6.814;2023-02-24T00:40:13;7.10;98.20
4374;DHT22;2201;51.100;6.814;2023-02-24T00:42:40;7.10;98.20
4374;DHT22;2201;51.100;6.814;2023-02-24T00:45:16;7.10;98.20
4374;DHT22;2201;51.100;6.814;2023-02-24T00:47:44;7.10;98.20
4374;DHT22;2201;51.100;6.814;2023-02-24T00:50:18;7.10;98.20
4374;DHT22;2201;51.100;6.814;2023-02-24T00:52:53;7.10;98.20
4374;DHT22;2201;51.100;6.814;2023-02-24T00:55:26;7.10;98.20
4374;DHT22;2201;51.100;6.814;2023-02-24T00:58:04;7.10;98.20
4374;DHT22;2201;51.100;6.814;2023-02-24T01:00:36;7.00;98.20
4374;DHT22;2201;51.100;6.814;2023-02-24T01:03:12;7.10;98.20
4374;DHT22;2201;51.100;6.814;2023-02-24T01:05:39;7.10;98.20
4374;DHT22;2201;51.100;6.814;2023-02-24T01:10:38;7.00;98.20
4374;DHT22;2201;51.100;6.814;2023-02-24T01:13:26;7.00;98.20
4374;DHT22;2201;51.100;6.814;2023-02-24T01:15:57;7.00;98.20
4374;DHT22;2201;51.100;6.814;2023-02-24T01:18:26;7.00;98.20
4374;DHT22;2201;51.100;6.814;2023-02-24T01:20:57;6.90;98.20
4374;DHT22;2201;51.100;6.814;2023-02-24T01:23:24;6.90;98.20
4374;DHT22;2201;51.100;6.814;2023-02-24T01:25:53;6.80;98.20
4374;DHT22;2201;51.100;6.814;2023-02-24T01:28:23;6.80;98.20
4374;DHT22;2201;51.100;6.814;2023-02-24T01:30:50;6.70;98.20
4374;DHT22;2201;51.100;6.814;2023-02-24T01:33:17;6.70;98.20
4374;DHT22;2201;51.100;6.814;2023-02-24T01:35:44;6.60;98.20
4374;DHT22;2201;51.100;6.814;2023-02-24T01:38:11;6.60;98.20
4374;DHT22;2201;51.100;6.814;2023-02-24T01:40:38;6.60;98.20
4374;DHT22;2201;51.100;6.814;2023-02-24T01:43:09;6.60;98.20
4374;DHT22;2201;51.100;6.814;2023-02-24T01:45:36;6.60;98.20
4374;DHT22;2201;51.100;6.814;2023-02-24T01:48:06;6.60;98.20
4374;DHT22;2201;51.100;6.814;2023-02-24T01:50:35;6.60;98.20
4374;DHT22;2201;51.100;6.814;2023-02-24T01:53:05;6.60;98.20
4374;DHT22;2201;51.100;6.814;2023-02-24T01:55:36;6.50;98.20
4374;DHT22;2201;51.100;6.814;2023-02-24T01:58:12;6.50;98.20
4374;DHT22;2201;51.100;6.814;2023-02-24T02:00:41;6.50;98.20
4374;DHT22;2201;51.100;6.814;2023-02-24T02:03:17;6.50;98.20
4374;DHT22;2201;51.100;6.814;2023-02-24T02:05:45;6.50;98.20
4374;DHT22;2201;51.100;6.814;2023-02-24T02:08:15;6.50;98.20
4374;DHT22;2201;51.100;6.814;2023-02-24T02:10:43;6.50;98.20
4374;DHT22;2201;51.100;6.814;2023-02-24T02:13:14;6.40;98.20
4374;DHT22;2201;51.100;6.814;2023-02-24T02:15:52;6.40;98.20
4374;DHT22;2201;51.100;6.814;2023-02-24T02:18:27;6.40;98.20
4374;DHT22;2201;51.100;6.814;2023-02-24T02:21:07;6.40;98.20
4374;DHT22;2201;51.100;6.814;2023-02-24T02:23:57;6.40;98.20
4374;DHT22;2201;51.100;6.814;2023-02-24T02:29:52;6.30;98.20
4374;DHT22;2201;51.100;6.814;2023-02-24T02:32:55;6.30;98.20
4374;DHT22;2201;51.100;6.814;2023-02-24T02:35:35;6.20;98.20
4374;DHT22;2201;51.100;6.814;2023-02-24T02:38:09;6.20;98.20
4374;DHT22;2201;51.100;6.814;2023-02-24T02:40:43;6.20;98.20
4374;DHT22;2201;51.100;6.814;2023-02-24T02:43:16;6.20;98.20
4374;DHT22;2201;51.100;6.814;2023-02-24T02:45:46;6.20;98.20
4374;DHT22;2201;51.100;6.814;2023-02-24T02:48:26;6.20;98.20
4374;DHT22;2201;51.100;6.814;2023-02-24T02:50:57;6.10;98.20
4374;DHT22;2201;51.100;6.814;2023-02-24T02:53:32;6.10;98.20
4374;DHT22;2201;51.100;6.814;2023-02-24T02:56:06;6.10;98.20
4374;DHT22;2201;51.100;6.814;2023-02-24T02:58:39;6.10;98.20
4374;DHT22;2201;51.100;6.814;2023-02-24T03:01:09;6.10;98.20
4374;DHT22;2201;51.100;6.814;2023-02-24T03:03:39;6.10;98.20
4374;DHT22;2201;51.100;6.814;2023-02-24T03:06:14;6.10;98.20
4374;DHT22;2201;51.100;6.814;2023-02-24T03:08:53;6.10;98.20
4374;DHT22;2201;51.100;6.814;2023-02-24T03:11:23;6.10;98.20
4374;DHT22;2201;51.100;6.814;2023-02-24T03:13:54;6.10;98.20
4374;DHT22;2201;51.100;6.814;2023-02-24T03:16:22;6.10;98.20
4374;DHT22;2201;51.100;6.814;2023-02-24T03:18:54;6.10;98.20
4374;DHT22;2201;51.100;6.814;2023-02-24T03:21:28;6.10;98.20
4374;DHT22;2201;51.100;6.814;2023-02-24T03:23:58;6.10;98.20
4374;DHT22;2201;51.100;6.814;2023-02-24T03:26:29;6.10;98.20
4374;DHT22;2201;51.100;6.814;2023-02-24T03:29:04;6.00;98.20
4374;DHT22;2201;51.100;6.814;2023-02-24T03:31:37;6.00;98.20
4374;DHT22;2201;51.100;6.814;2023-02-24T03:34:10;6.00;98.20
4374;DHT22;2201;51.100;6.814;2023-02-24T03:36:40;6.00;98.20
4374;DHT22;2201;51.100;6.814;2023-02-24T03:39:10;5.90;98.20
4374;DHT22;2201;51.100;6.814;2023-02-24T03:41:43;6.00;98.20
4374;DHT22;2201;51.100;6.814;2023-02-24T03:44:11;5.90;98.20
4374;DHT22;2201;51.100;6.814;2023-02-24T03:46:39;5.90;98.20
4374;DHT22;2201;51.100;6.814;2023-02-24T03:49:09;5.90;98.20
4374;DHT22;2201;51.100;6.814;2023-02-24T03:51:45;5.80;98.20
4374;DHT22;2201;51.100;6.814;2023-02-24T03:54:24;5.80;98.20
4374;DHT22;2201;51.100;6.814;2023-02-24T03:57:10;5.80;98.20
4374;DHT22;2201;51.100;6.814;2023-02-24T03:59:48;5.80;98.20
4374;DHT22;2201;51.100;6.814;2023-02-24T04:02:21;5.80;98.20
4374;DHT22;2201;51.100;6.814;2023-02-24T04:04:52;5.80;98.20
4374;DHT22;2201;51.100;6.814;2023-02-24T04:07:38;5.80;98.20
4374;DHT22;2201;51.100;6.814;2023-02-24T04:10:10;5.70;98.20
4374;DHT22;2201;51.100;6.814;2023-02-24T04:12:44;5.70;98.20
4374;DHT22;2201;51.100;6.814;2023-02-24T04:15:19;5.70;98.20
4374;DHT22;2201;51.100;6.814;2023-02-24T04:17:49;5.70;98.20
4374;DHT22;2201;51.100;6.814;2023-02-24T04:20:20;5.70;98.20
4374;DHT22;2201;51.100;6.814;2023-02-24T04:22:52;5.70;98.20
4374;DHT22;2201;51.100;6.814;2023-02-24T04:25:21;5.60;98.20
4374;DHT22;2201;51.100;6.814;2023-02-24T04:27:50;5.60;98.20
4374;DHT22;2201;51.100;6.814;2023-02-24T04:30:19;5.60;98.20
4374;DHT22;2201;51.100;6.814;2023-02-24T04:32:46;5.60;98.20
4374;DHT22;2201;51.100;6.814;2023-02-24T04:35:15;5.60;98.20
4374;DHT22;2201;51.100;6.814;2023-02-24T04:37:45;5.60;98.20
4374;DHT22;2201;51.100;6.814;2023-02-24T04:40:15;5.50;98.20
4374;DHT22;2201;51.100;6.814;2023-02-24T04:42:47;5.50;98.20
4374;DHT22;2201;51.100;6.814;2023-02-24T04:45:16;5.50;98.20
4374;DHT22;2201;51.100;6.814;2023-02-24T04:47:44;5.50;98.20
4374;DHT22;2201;51.100;6.814;2023-02-24T04:50:14;5.50;98.20
4374;DHT22;2201;51.100;6.814;2023-02-24T04:52:48;5.40;98.20
4374;DHT22;2201;51.100;6.814;2023-02-24T04:55:18;5.30;98.20
4374;DHT22;2201;51.100;6.814;2023-02-24T04:57:47;5.30;98.20
4374;DHT22;2201;51.100;6.814;2023-02-24T05:00:15;5.30;98.20
4374;DHT22;2201;51.100;6.814;2023-02-24T05:02:52;5.30;98.20
4374;DHT22;2201;51.100;6.814;2023-02-24T05:05:21;5.20;98.20
4374;DHT22;2201;51.100;6.814;2023-02-24T05:07:50;5.20;98.20
4374;DHT22;2201;51.100;6.814;2023-02-24T05:10:19;5.20;98.20
4374;DHT22;2201;51.100;6.814;2023-02-24T05:12:46;5.20;98.20
4374;DHT22;2201;51.100;6.814;2023-02-24T05:15:14;5.20;98.20
4374;DHT22;2201;51.100;6.814;2023-02-24T05:17:42;5.20;98.20
4374;DHT22;2201;51.100;6.814;2023-02-24T05:20:10;5.20;98.20
4374;DHT22;2201;51.100;6.814;2023-02-24T05:22:54;5.10;98.20
4374;DHT22;2201;51.100;6.814;2023-02-24T05:25:23;5.10;98.20
4374;DHT22;2201;51.100;6.814;2023-02-24T05:27:51;5.10;98.20
4374;DHT22;2201;51.100;6.814;2023-02-24T05:30:18;5.10;98.20
4374;DHT22;2201;51.100;6.814;2023-02-24T05:32:46;5.10;98.20
4374;DHT22;2201;51.100;6.814;2023-02-24T05:35:13;5.10;98.20
4374;DHT22;2201;51.100;6.814;2023-02-24T05:37:40;5.10;98.20
4374;DHT22;2201;51.100;6.814;2023-02-24T05:40:10;5.10;98.20
4374;DHT22;2201;51.100;6.814;2023-02-24T05:42:42;5.10;98.20
4374;DHT22;2201;51.100;6.814;2023-02-24T05:45:10;5.10;98.20
4374;DHT22;2201;51.100;6.814;2023-02-24T05:47:40;5.10;98.20
4374;DHT22;2201;51.100;6.814;2023-02-24T05:50:12;5.10;98.20
4374;DHT22;2201;51.100;6.814;2023-02-24T05:52:39;5.00;98.20
4374;DHT22;2201;51.100;6.814;2023-02-24T05:55:10;5.00;98.20
4374;DHT22;2201;51.100;6.814;2023-02-24T05:57:38;5.00;98.20
4374;DHT22;2201;51.100;6.814;2023-02-24T06:00:09;5.00;98.20
4374;DHT22;2201;51.100;6.814;2023-02-24T06:02:41;5.00;98.20
4374;DHT22;2201;51.100;6.814;2023-02-24T06:05:15;5.00;98.20
4374;DHT22;2201;51.100;6.814;2023-02-24T06:07:56;5.00;98.20
4374;DHT22;2201;51.100;6.814;2023-02-24T06:10:32;5.00;98.20
4374;DHT22;2201;51.100;6.814;2023-02-24T06:13:00;5.00;98.20
4374;DHT22;2201;51.100;6.814;2023-02-24T06:15:29;5.00;98.20
4374;DHT22;2201;51.100;6.814;2023-02-24T06:17:57;5.00;98.20
4374;DHT22;2201;51.100;6.814;2023-02-24T06:20:26;4.90;98.20
4374;DHT22;2201;51.100;6.814;2023-02-24T06:22:54;5.00;98.20
4374;DHT22;2201;51.100;6.814;2023-02-24T06:25:23;5.00;98.20
4374;DHT22;2201;51.100;6.814;2023-02-24T06:27:52;5.00;98.20
4374;DHT22;2201;51.100;6.814;2023-02-24T06:30:21;5.00;98.20
4374;DHT22;2201;51.100;6.814;2023-02-24T06:32:51;5.00;98.20
4374;DHT22;2201;51.100;6.814;2023-02-24T06:35:19;5.00;98.20
4374;DHT22;2201;51.100;6.814;2023-02-24T06:37:48;4.90;98.20
4374;DHT22;2201;51.100;6.814;2023-02-24T06:40:16;4.90;98.20
4374;DHT22;2201;51.100;6.814;2023-02-24T06:42:45;4.90;98.20
4374;DHT22;2201;51.100;6.814;2023-02-24T06:45:13;4.90;98.20
4374;DHT22;2201;51.100;6.814;2023-02-24T06:47:41;4.90;98.20
4374;DHT22;2201;51.100;6.814;2023-02-24T06:50:12;5.00;98.20
4374;DHT22;2201;51.100;6.814;2023-02-24T06:52:40;5.00;98.20
4374;DHT22;2201;51.100;6.814;2023-02-24T06:55:09;5.00;98.20
4374;DHT22;2201;51.100;6.814;2023-02-24T06:57:53;5.00;98.20
4374;DHT22;2201;51.100;6.814;2023-02-24T07:00:30;5.10;98.20
4374;DHT22;2201;51.100;6.814;2023-02-24T07:03:13;5.10;98.20
4374;DHT22;2201;51.100;6.814;2023-02-24T07:05:47;5.10;98.20
4374;DHT22;2201;51.100;6.814;2023-02-24T07:08:20;5.20;98.20
4374;DHT22;2201;51.100;6.814;2023-02-24T07:10:52;5.20;98.20
4374;DHT22;2201;51.100;6.814;2023-02-24T07:13:20;5.20;98.20
4374;DHT22;2201;51.100;6.814;2023-02-24T07:15:49;5.20;98.20
4374;DHT22;2201;51.100;6.814;2023-02-24T07:18:16;5.20;98.20
4374;DHT22;2201;51.100;6.814;2023-02-24T07:20:46;5.30;98.20
4374;DHT22;2201;51.100;6.814;2023-02-24T07:23:13;5.30;98.20
4374;DHT22;2201;51.100;6.814;2023-02-24T07:25:41;5.30;98.20
4374;DHT22;2201;51.100;6.814;2023-02-24T07:28:11;5.30;98.20
4374;DHT22;2201;51.100;6.814;2023-02-24T07:30:44;5.30;98.20
4374;DHT22;2201;51.100;6.814;2023-02-24T07:33:11;5.30;98.20
4374;DHT22;2201;51.100;6.814;2023-02-24T07:35:52;5.30;98.20
4374;DHT22;2201;51.100;6.814;2023-02-24T07:38:19;5.30;98.20
4374;DHT22;2201;51.100;6.814;2023-02-24T07:40:48;5.30;98.20
4374;DHT22;2201;51.100;6.814;2023-02-24T07:43:15;5.40;98.20
4374;DHT22;2201;51.100;6.814;2023-02-24T07:45:43;5.40;98.20
4374;DHT22;2201;51.100;6.814;2023-02-24T07:48:12;5.40;98.20
4374;DHT22;2201;51.100;6.814;2023-02-24T07:50:40;5.40;98.20
4374;DHT22;2201;51.100;6.814;2023-02-24T07:53:09;5.40;98.20
4374;DHT22;2201;51.100;6.814;2023-02-24T07:55:37;5.50;98.20
4374;DHT22;2201;51.100;6.814;2023-02-24T07:58:04;5.60;98.20
4374;DHT22;2201;51.100;6.814;2023-02-24T08:00:32;5.60;98.20
4374;DHT22;2201;51.100;6.814;2023-02-24T08:03:14;5.60;98.20
4374;DHT22;2201;51.100;6.814;2023-02-24T08:05:42;5.70;98.20
4374;DHT22;2201;51.100;6.814;2023-02-24T08:08:10;5.70;98.20
4374;DHT22;2201;51.100;6.814;2023-02-24T08:10:39;5.80;98.20
4374;DHT22;2201;51.100;6.814;2023-02-24T08:13:20;5.80;98.20
4374;DHT22;2201;51.100;6.814;2023-02-24T08:15:47;5.80;98.20
4374;DHT22;2201;51.100;6.814;2023-02-24T08:18:23;5.90;98.20
4374;DHT22;2201;51.100;6.814;2023-02-24T08:20:53;5.90;98.20
4374;DHT22;2201;51.100;6.814;2023-02-24T08:23:30;5.90;98.20
4374;DHT22;2201;51.100;6.814;2023-02-24T08:26:03;6.00;98.20
4374;DHT22;2201;51.100;6.814;2023-02-24T08:28:38;6.00;98.20
4374;DHT22;2201;51.100;6.814;2023-02-24T08:31:05;6.00;98.20
4374;DHT22;2201;51.100;6.814;2023-02-24T08:33:33;6.00;98.20
4374;DHT22;2201;51.100;6.814;2023-02-24T08:36:04;6.00;98.20
4374;DHT22;2201;51.100;6.814;2023-02-24T08:38:34;6.00;98.20
4374;DHT22;2201;51.100;6.814;2023-02-24T08:41:19;6.10;98.20
4374;DHT22;2201;51.100;6.814;2023-02-24T08:43:55;6.10;98.20
4374;DHT22;2201;51.100;6.814;2023-02-24T08:46:25;6.10;98.20
4374;DHT22;2201;51.100;6.814;2023-02-24T08:49:02;6.20;98.20
4374;DHT22;2201;51.100;6.814;2023-02-24T09:02:17;6.30;98.20
4374;DHT22;2201;51.100;6.814;2023-02-24T09:08:36;6.40;98.20
4374;DHT22;2201;51.100;6.814;2023-02-24T09:12:03;6.50;98.20
4374;DHT22;2201;51.100;6.814;2023-02-24T09:14:35;6.50;98.20
4374;DHT22;2201;51.100;6.814;2023-02-24T09:21:11;6.50;98.20
4374;DHT22;2201;51.100;6.814;2023-02-24T09:33:18;6.70;98.20
4374;DHT22;2201;51.100;6.814;2023-02-24T09:35:50;6.80;98.20
4374;DHT22;2201;51.100;6.814;2023-02-24T09:38:19;6.80;98.20
4374;DHT22;2201;51.100;6.814;2023-02-24T09:41:19;6.80;98.20
4374;DHT22;2201;51.100;6.814;2023-02-24T09:43:58;6.80;98.20
4374;DHT22;2201;51.100;6.814;2023-02-24T09:46:32;6.90;98.20
4374;DHT22;2201;51.100;6.814;2023-02-24T09:49:10;6.90;98.20
4374;DHT22;2201;51.100;6.814;2023-02-24T09:51:39;7.00;98.20
4374;DHT22;2201;51.100;6.814;2023-02-24T09:54:14;7.10;98.20
4374;DHT22;2201;51.100;6.814;2023-02-24T09:56:50;7.10;98.20
4374;DHT22;2201;51.100;6.814;2023-02-24T09:59:29;7.10;98.20
4374;DHT22;2201;51.100;6.814;2023-02-24T10:02:13;7.10;98.20
4374;DHT22;2201;51.100;6.814;2023-02-24T10:05:01;7.10;98.20
4374;DHT22;2201;51.100;6.814;2023-02-24T10:07:35;7.00;98.20
4374;DHT22;2201;51.100;6.814;2023-02-24T10:12:38;7.00;98.20
4374;DHT22;2201;51.100;6.814;2023-02-24T10:15:13;7.00;98.20
4374;DHT22;2201;51.100;6.814;2023-02-24T10:18:26;7.00;98.20
4374;DHT22;2201;51.100;6.814;2023-02-24T10:21:03;6.90;98.20
4374;DHT22;2201;51.100;6.814;2023-02-24T10:23:42;6.90;98.20
4374;DHT22;2201;51.100;6.814;2023-02-24T10:26:26;6.90;98.20
4374;DHT22;2201;51.100;6.814;2023-02-24T10:29:04;6.90;98.20
4374;DHT22;2201;51.100;6.814;2023-02-24T10:31:40;6.90;98.20
4374;DHT22;2201;51.100;6.814;2023-02-24T10:34:15;6.90;98.20
4374;DHT22;2201;51.100;6.814;2023-02-24T10:36:53;6.90;98.20
4374;DHT22;2201;51.100;6.814;2023-02-24T10:39:24;6.90;98.20
4374;DHT22;2201;51.100;6.814;2023-02-24T10:41:57;6.90;98.20
4374;DHT22;2201;51.100;6.814;2023-02-24T10:44:42;6.80;98.20
4374;DHT22;2201;51.100;6.814;2023-02-24T10:47:19;6.80;98.20
4374;DHT22;2201;51.100;6.814;2023-02-24T10:49:59;6.80;98.20
4374;DHT22;2201;51.100;6.814;2023-02-24T10:52:31;6.80;98.20
4374;DHT22;2201;51.100;6.814;2023-02-24T10:55:39;6.80;98.20
4374;DHT22;2201;51.100;6.814;2023-02-24T10:58:41;6.80;98.20
4374;DHT22;2201;51.100;6.814;2023-02-24T11:01:26;6.80;98.20
4374;DHT22;2201;51.100;6.814;2023-02-24T11:04:13;6.80;98.20
4374;DHT22;2201;51.100;6.814;2023-02-24T11:07:03;6.80;98.20
4374;DHT22;2201;51.100;6.814;2023-02-24T11:09:40;6.70;98.20
4374;DHT22;2201;51.100;6.814;2023-02-24T11:12:21;6.70;98.20
4374;DHT22;2201;51.100;6.814;2023-02-24T11:15:19;6.70;98.20
4374;DHT22;2201;51.100;6.814;2023-02-24T11:18:06;6.70;98.20
4374;DHT22;2201;51.100;6.814;2023-02-24T11:20:45;6.70;98.20
4374;DHT22;2201;51.100;6.814;2023-02-24T11:23:18;6.60;98.20
4374;DHT22;2201;51.100;6.814;2023-02-24T11:25:52;6.50;98.20
4374;DHT22;2201;51.100;6.814;2023-02-24T11:28:39;6.40;98.20
4374;DHT22;2201;51.100;6.814;2023-02-24T11:31:22;6.30;98.20
4374;DHT22;2201;51.100;6.814;2023-02-24T11:34:02;6.30;98.20
4374;DHT22;2201;51.100;6.814;2023-02-24T11:43:14;6.20;98.20
4374;DHT22;2201;51.100;6.814;2023-02-24T11:45:48;6.10;98.20
4374;DHT22;2201;51.100;6.814;2023-02-24T11:48:25;6.10;98.20
4374;DHT22;2201;51.100;6.814;2023-02-24T11:51:00;6.20;98.20
4374;DHT22;2201;51.100;6.814;2023-02-24T11:53:34;6.20;98.20
4374;DHT22;2201;51.100;6.814;2023-02-24T11:56:07;6.20;98.20
4374;DHT22;2201;51.100;6.814;2023-02-24T11:58:44;6.20;98.20
4374;DHT22;2201;51.100;6.814;2023-02-24T12:01:22;6.20;98.20
4374;DHT22;2201;51.100;6.814;2023-02-24T12:04:00;6.20;98.20
4374;DHT22;2201;51.100;6.814;2023-02-24T12:06:37;6.20;98.20
4374;DHT22;2201;51.100;6.814;2023-02-24T12:09:14;6.20;98.20
4374;DHT22;2201;51.100;6.814;2023-02-24T12:11:51;6.20;98.20
4374;DHT22;2201;51.100;6.814;2023-02-24T12:14:27;6.20;98.20
4374;DHT22;2201;51.100;6.814;2023-02-24T12:17:03;6.20;98.20
4374;DHT22;2201;51.100;6.814;2023-02-24T12:19:48;6.20;98.20
4374;DHT22;2201;51.100;6.814;2023-02-24T12:22:19;6.20;98.20
4374;DHT22;2201;51.100;6.814;2023-02-24T12:24:51;6.20;98.20
4374;DHT22;2201;51.100;6.814;2023-02-24T12:27:34;6.20;98.20
4374;DHT22;2201;51.100;6.814;2023-02-24T12:30:25;6.20;98.20
4374;DHT22;2201;51.100;6.814;2023-02-24T12:33:11;6.20;98.20
4374;DHT22;2201;51.100;6.814;2023-02-24T12:35:46;6.10;98.20
4374;DHT22;2201;51.100;6.814;2023-02-24T12:38:35;6.00;98.20
4374;DHT22;2201;51.100;6.814;2023-02-24T12:41:18;6.00;98.20
4374;DHT22;2201;51.100;6.814;2023-02-24T12:44:00;6.00;98.20
4374;DHT22;2201;51.100;6.814;2023-02-24T12:46:33;6.00;98.20
4374;DHT22;2201;51.100;6.814;2023-02-24T12:49:23;6.00;98.20
4374;DHT22;2201;51.100;6.814;2023-02-24T12:52:01;6.10;98.20
4374;DHT22;2201;51.100;6.814;2023-02-24T12:54:36;6.10;98.20
4374;DHT22;2201;51.100;6.814;2023-02-24T12:57:12;6.20;98.20
4374;DHT22;2201;51.100;6.814;2023-02-24T12:59:43;6.20;98.20
4374;DHT22;2201;51.100;6.814;2023-02-24T13:02:21;6.20;98.20
4374;DHT22;2201;51.100;6.814;2023-02-24T13:05:01;6.20;98.20
4374;DHT22;2201;51.100;6.814;2023-02-24T13:07:46;6.20;98.20
4374;DHT22;2201;51.100;6.814;2023-02-24T13:10:29;6.20;98.20
4374;DHT22;2201;51.100;6.814;2023-02-24T13:13:07;6.20;98.20
4374;DHT22;2201;51.100;6.814;2023-02-24T13:15:47;6.10;98.20
4374;DHT22;2201;51.100;6.814;2023-02-24T13:18:26;6.10;98.20
4374;DHT22;2201;51.100;6.814;2023-02-24T13:21:07;6.10;98.20
4374;DHT22;2201;51.100;6.814;2023-02-24T13:23:40;6.10;98.20
4374;DHT22;2201;51.100;6.814;2023-02-24T13:26:09;6.10;98.20
4374;DHT22;2201;51.100;6.814;2023-02-24T13:28:37;6.10;98.20
4374;DHT22;2201;51.100;6.814;2023-02-24T13:31:06;6.10;98.20
4374;DHT22;2201;51.100;6.814;2023-02-24T13:33:39;6.10;98.20
4374;DHT22;2201;51.100;6.814;2023-02-24T13:36:14;6.00;98.20
4374;DHT22;2201;51.100;6.814;2023-02-24T13:38:47;6.00;98.20
4374;DHT22;2201;51.100;6.814;2023-02-24T13:41:35;6.00;98.20
4374;DHT22;2201;51.100;6.814;2023-02-24T13:44:23;6.00;98.20
4374;DHT22;2201;51.100;6.814;2023-02-24T13:47:16;6.00;98.20
4374;DHT22;2201;51.100;6.814;2023-02-24T13:52:57;6.00;98.20
4374;DHT22;2201;51.100;6.814;2023-02-24T13:55:45;6.00;98.20
4374;DHT22;2201;51.100;6.814;2023-02-24T13:58:43;6.00;98.20
4374;DHT22;2201;51.100;6.814;2023-02-24T14:01:19;6.00;98.20
4374;DHT22;2201;51.100;6.814;2023-02-24T14:04:05;6.00;98.20
4374;DHT22;2201;51.100;6.814;2023-02-24T14:06:46;5.90;98.20
4374;DHT22;2201;51.100;6.814;2023-02-24T14:09:23;5.90;98.20
4374;DHT22;2201;51.100;6.814;2023-02-24T14:11:59;5.90;98.20
4374;DHT22;2201;51.100;6.814;2023-02-24T14:14:30;5.90;98.20
4374;DHT22;2201;51.100;6.814;2023-02-24T14:17:01;5.80;98.20
4374;DHT22;2201;51.100;6.814;2023-02-24T14:19:31;5.90;98.20
4374;DHT22;2201;51.100;6.814;2023-02-24T14:22:03;5.90;98.20
4374;DHT22;2201;51.100;6.814;2023-02-24T14:24:34;5.90;98.20
4374;DHT22;2201;51.100;6.814;2023-02-24T14:27:04;5.90;98.20
4374;DHT22;2201;51.100;6.814;2023-02-24T14:29:35;5.90;98.20
4374;DHT22;2201;51.100;6.814;2023-02-24T14:32:14;5.80;98.20
4374;DHT22;2201;51.100;6.814;2023-02-24T14:34:46;5.80;98.20
4374;DHT22;2201;51.100;6.814;2023-02-24T14:37:22;5.80;98.20
4374;DHT22;2201;51.100;6.814;2023-02-24T14:39:53;5.80;98.20
4374;DHT22;2201;51.100;6.814;2023-02-24T14:42:23;5.90;98.20
4374;DHT22;2201;51.100;6.814;2023-02-24T14:44:54;5.90;98.20
4374;DHT22;2201;51.100;6.814;2023-02-24T14:47:26;5.80;98.20
4374;DHT22;2201;51.100;6.814;2023-02-24T14:49:59;5.80;98.20
4374;DHT22;2201;51.100;6.814;2023-02-24T14:52:37;5.90;98.20
4374;DHT22;2201;51.100;6.814;2023-02-24T14:55:12;5.90;98.20
4374;DHT22;2201;51.100;6.814;2023-02-24T14:57:53;5.90;98.20
4374;DHT22;2201;51.100;6.814;2023-02-24T15:00:26;5.90;98.20
4374;DHT22;2201;51.100;6.814;2023-02-24T15:03:03;5.90;98.20
4374;DHT22;2201;51.100;6.814;2023-02-24T15:05:33;5.90;98.20
4374;DHT22;2201;51.100;6.814;2023-02-24T15:08:29;5.90;98.20
4374;DHT22;2201;51.100;6.814;2023-02-24T15:11:00;5.90;98.20
4374;DHT22;2201;51.100;6.814;2023-02-24T15:13:36;5.90;98.20
4374;DHT22;2201;51.100;6.814;2023-02-24T15:16:11;5.90;98.20
4374;DHT22;2201;51.100;6.814;2023-02-24T15:18:41;5.90;98.20
4374;DHT22;2201;51.100;6.814;2023-02-24T15:21:19;5.90;98.20
4374;DHT22;2201;51.100;6.814;2023-02-24T15:23:58;5.90;98.20
4374;DHT22;2201;51.100;6.814;2023-02-24T15:26:30;6.00;98.20
4374;DHT22;2201;51.100;6.814;2023-02-24T15:29:02;6.00;98.20
4374;DHT22;2201;51.100;6.814;2023-02-24T15:31:46;6.00;98.20
4374;DHT22;2201;51.100;6.814;2023-02-24T15:34:18;6.00;98.20
4374;DHT22;2201;51.100;6.814;2023-02-24T15:36:50;6.00;98.20
4374;DHT22;2201;51.100;6.814;2023-02-24T15:39:27;6.00;98.20
4374;DHT22;2201;51.100;6.814;2023-02-24T15:42:07;6.00;98.20
4374;DHT22;2201;51.100;6.814;2023-02-24T15:44:37;6.00;98.20
4374;DHT22;2201;51.100;6.814;2023-02-24T15:47:20;6.00;98.20
4374;DHT22;2201;51.100;6.814;2023-02-24T15:52:58;6.00;98.20
4374;DHT22;2201;51.100;6.814;2023-02-24T15:55:30;6.00;98.20
4374;DHT22;2201;51.100;6.814;2023-02-24T15:58:01;6.00;98.20
4374;DHT22;2201;51.100;6.814;2023-02-24T16:00:30;6.00;98.20
4374;DHT22;2201;51.100;6.814;2023-02-24T16:03:00;6.00;98.20
4374;DHT22;2201;51.100;6.814;2023-02-24T16:05:32;6.00;98.20
4374;DHT22;2201;51.100;6.814;2023-02-24T16:08:03;6.00;98.20
4374;DHT22;2201;51.100;6.814;2023-02-24T16:10:36;6.10;98.20
4374;DHT22;2201;51.100;6.814;2023-02-24T16:13:08;6.10;98.20
4374;DHT22;2201;51.100;6.814;2023-02-24T16:15:44;6.10;98.20
4374;DHT22;2201;51.100;6.814;2023-02-24T16:18:17;6.10;98.20
4374;DHT22;2201;51.100;6.814;2023-02-24T16:20:47;6.10;98.20
4374;DHT22;2201;51.100;6.814;2023-02-24T16:23:20;6.10;98.20
4374;DHT22;2201;51.100;6.814;2023-02-24T16:25:54;6.20;98.20
4374;DHT22;2201;51.100;6.814;2023-02-24T16:28:25;6.10;98.20
4374;DHT22;2201;51.100;6.814;2023-02-24T16:30:54;6.10;98.20
4374;DHT22;2201;51.100;6.814;2023-02-24T16:33:23;6.10;98.20
4374;DHT22;2201;51.100;6.814;2023-02-24T16:35:53;6.10;98.20
4374;DHT22;2201;51.100;6.814;2023-02-24T16:38:23;6.10;98.20
4374;DHT22;2201;51.100;6.814;2023-02-24T16:40:55;6.10;98.20
4374;DHT22;2201;51.100;6.814;2023-02-24T16:43:24;6.10;98.20
4374;DHT22;2201;51.100;6.814;2023-02-24T16:45:53;6.10;98.20
4374;DHT22;2201;51.100;6.814;2023-02-24T16:48:24;6.20;98.20
4374;DHT22;2201;51.100;6.814;2023-02-24T16:50:53;6.20;98.20
4374;DHT22;2201;51.100;6.814;2023-02-24T16:53:23;6.20;98.20
4374;DHT22;2201;51.100;6.814;2023-02-24T16:55:51;6.20;98.20
4374;DHT22;2201;51.100;6.814;2023-02-24T16:58:20;6.20;98.20
4374;DHT22;2201;51.100;6.814;2023-02-24T17:00:50;6.20;98.20
4374;DHT22;2201;51.100;6.814;2023-02-24T17:03:20;6.20;98.20
4374;DHT22;2201;51.100;6.814;2023-02-24T17:05:50;6.20;98.20
4374;DHT22;2201;51.100;6.814;2023-02-24T17:08:17;6.20;98.20
4374;DHT22;2201;51.100;6.814;2023-02-24T17:10:45;6.20;98.20
4374;DHT22;2201;51.100;6.814;2023-02-24T17:13:14;6.20;98.20
4374;DHT22;2201;51.100;6.814;2023-02-24T17:15:43;6.20;98.20
4374;DHT22;2201;51.100;6.814;2023-02-24T17:18:11;6.20;98.20
4374;DHT22;2201;51.100;6.814;2023-02-24T17:20:39;6.20;98.20
4374;DHT22;2201;51.100;6.814;2023-02-24T17:23:10;6.20;98.20
4374;DHT22;2201;51.100;6.814;2023-02-24T17:25:38;6.20;98.20
4374;DHT22;2201;51.100;6.814;2023-02-24T17:28:06;6.20;98.20
4374;DHT22;2201;51.100;6.814;2023-02-24T17:30:34;6.20;98.20
4374;DHT22;2201;51.100;6.814;2023-02-24T17:33:03;6.30;98.20
4374;DHT22;2201;51.100;6.814;2023-02-24T17:35:30;6.30;98.20
4374;DHT22;2201;51.100;6.814;2023-02-24T17:37:57;6.20;98.20
4374;DHT22;2201;51.100;6.814;2023-02-24T17:40:25;6.30;98.20
4374;DHT22;2201;51.100;6.814;2023-02-24T17:42:52;6.30;98.20
4374;DHT22;2201;51.100;6.814;2023-02-24T17:45:20;6.20;98.20
4374;DHT22;2201;51.100;6.814;2023-02-24T17:47:47;6.20;98.20
4374;DHT22;2201;51.100;6.814;2023-02-24T17:50:15;6.20;98.20